sensor_id;sensor_type;location;lat;lon;timestamp;temperature;humidity
27940;DHT22;15275;51.716;14.324;2023-03-09T00:00:34;4.50;85.50
27940;DHT22;15275;51.716;14.324;2023-03-09T00:03:01;4.50;85.50
27940;DHT22;15275;51.716;14.324;2023-03-09T00:05:27;4.50;85.50
27940;DHT22;15275;51.716;14.324;2023-03-09T00:07:54;4.50;85.50
27940;DHT22;15275;51.716;14.324;2023-03-09T00:10:21;4.50;85.50
27940;DHT22;15275;51.716;14.324;2023-03-09T00:12:48;4.50;85.50
27940;DHT22;15275;51.716;14.324;2023-03-09T00:15:14;4.50;85.50
27940;DHT22;15275;51.716;14.324;2023-03-09T00:17:39;4.50;85.70
27940;DHT22;15275;51.716;14.324;2023-03-09T00:20:10;4.50;85.70
27940;DHT22;15275;51.716;14.324;2023-03-09T00:22:50;4.50;85.70
27940;DHT22;15275;51.716;14.324;2023-03-09T00:25:18;4.60;85.50
27940;DHT22;15275;51.716;14.324;2023-03-09T00:27:47;4.60;85.40
27940;DHT22;15275;51.716;14.324;2023-03-09T00:30:16;4.60;85.40
27940;DHT22;15275;51.716;14.324;2023-03-09T00:32:43;4.60;85.50
27940;DHT22;15275;51.716;14.324;2023-03-09T00:35:09;4.60;85.50
27940;DHT22;15275;51.716;14.324;2023-03-09T00:37:36;4.60;85.30
27940;DHT22;15275;51.716;14.324;2023-03-09T00:40:04;4.50;85.30
27940;DHT22;15275;51.716;14.324;2023-03-09T00:42:36;4.50;85.30
27940;DHT22;15275;51.716;14.324;2023-03-09T00:45:04;4.50;85.40
27940;DHT22;15275;51.716;14.324;2023-03-09T00:47:31;4.50;85.50
27940;DHT22;15275;51.716;14.324;2023-03-09T00:49:57;4.50;85.30
27940;DHT22;15275;51.716;14.324;2023-03-09T00:52:22;4.50;85.40
27940;DHT22;15275;51.716;14.324;2023-03-09T00:54:48;4.50;85.50
27940;DHT22;15275;51.716;14.324;2023-03-09T00:57:21;4.50;85.40
27940;DHT22;15275;51.716;14.324;2023-03-09T00:59:48;4.50;85.50
27940;DHT22;15275;51.716;14.324;2023-03-09T01:02:14;4.50;85.70
27940;DHT22;15275;51.716;14.324;2023-03-09T01:04:40;4.60;85.50
27940;DHT22;15275;51.716;14.324;2023-03-09T01:07:06;4.60;85.40
27940;DHT22;15275;51.716;14.324;2023-03-09T01:09:32;4.60;85.50
27940;DHT22;15275;51.716;14.324;2023-03-09T01:11:57;4.60;85.70
27940;DHT22;15275;51.716;14.324;2023-03-09T01:14:23;4.60;85.70
27940;DHT22;15275;51.716;14.324;2023-03-09T01:16:49;4.60;85.50
27940;DHT22;15275;51.716;14.324;2023-03-09T01:19:15;4.60;85.40
27940;DHT22;15275;51.716;14.324;2023-03-09T01:21:41;4.60;85.50
27940;DHT22;15275;51.716;14.324;2023-03-09T01:24:06;4.60;85.40
27940;DHT22;15275;51.716;14.324;2023-03-09T01:26:32;4.60;85.30
27940;DHT22;15275;51.716;14.324;2023-03-09T01:28:58;4.60;85.40
27940;DHT22;15275;51.716;14.324;2023-03-09T01:31:24;4.60;85.40
27940;DHT22;15275;51.716;14.324;2023-03-09T01:33:50;4.60;85.40
27940;DHT22;15275;51.716;14.324;2023-03-09T01:36:18;4.60;85.40
27940;DHT22;15275;51.716;14.324;2023-03-09T01:38:44;4.60;85.50
27940;DHT22;15275;51.716;14.324;2023-03-09T01:41:11;4.60;85.50
27940;DHT22;15275;51.716;14.324;2023-03-09T01:43:40;4.60;85.50
27940;DHT22;15275;51.716;14.324;2023-03-09T01:54:49;4.60;85.30
27940;DHT22;15275;51.716;14.324;2023-03-09T02:00:14;4.60;85.30
27940;DHT22;15275;51.716;14.324;2023-03-09T02:02:45;4.60;85.40
27940;DHT22;15275;51.716;14.324;2023-03-09T02:05:22;4.60;85.40
27940;DHT22;15275;51.716;14.324;2023-03-09T02:07:51;4.60;85.30
27940;DHT22;15275;51.716;14.324;2023-03-09T02:10:25;4.60;85.20
27940;DHT22;15275;51.716;14.324;2023-03-09T02:12:57;4.60;85.30
27940;DHT22;15275;51.716;14.324;2023-03-09T02:15:26;4.60;85.40
27940;DHT22;15275;51.716;14.324;2023-03-09T02:17:52;4.60;85.40
27940;DHT22;15275;51.716;14.324;2023-03-09T02:20:38;4.50;85.40
27940;DHT22;15275;51.716;14.324;2023-03-09T02:28:53;4.50;85.40
27940;DHT22;15275;51.716;14.324;2023-03-09T02:31:19;4.50;85.30
27940;DHT22;15275;51.716;14.324;2023-03-09T02:33:46;4.50;85.40
27940;DHT22;15275;51.716;14.324;2023-03-09T02:36:12;4.50;85.40
27940;DHT22;15275;51.716;14.324;2023-03-09T02:38:38;4.50;85.50
27940;DHT22;15275;51.716;14.324;2023-03-09T02:41:06;4.50;85.50
27940;DHT22;15275;51.716;14.324;2023-03-09T02:43:55;4.50;85.70
27940;DHT22;15275;51.716;14.324;2023-03-09T02:46:23;4.50;85.50
27940;DHT22;15275;51.716;14.324;2023-03-09T02:48:49;4.50;85.50
27940;DHT22;15275;51.716;14.324;2023-03-09T02:51:15;4.50;85.70
27940;DHT22;15275;51.716;14.324;2023-03-09T02:53:41;4.50;85.70
27940;DHT22;15275;51.716;14.324;2023-03-09T02:56:07;4.50;85.70
27940;DHT22;15275;51.716;14.324;2023-03-09T02:58:33;4.50;85.70
27940;DHT22;15275;51.716;14.324;2023-03-09T03:00:59;4.50;85.70
27940;DHT22;15275;51.716;14.324;2023-03-09T03:03:25;4.40;85.70
27940;DHT22;15275;51.716;14.324;2023-03-09T03:05:51;4.40;85.70
27940;DHT22;15275;51.716;14.324;2023-03-09T03:08:17;4.40;85.70
27940;DHT22;15275;51.716;14.324;2023-03-09T03:10:43;4.40;85.70
27940;DHT22;15275;51.716;14.324;2023-03-09T03:13:09;4.40;85.70
27940;DHT22;15275;51.716;14.324;2023-03-09T03:15:35;4.40;85.70
27940;DHT22;15275;51.716;14.324;2023-03-09T03:18:00;4.40;85.70
27940;DHT22;15275;51.716;14.324;2023-03-09T03:20:26;4.40;85.70
27940;DHT22;15275;51.716;14.324;2023-03-09T03:22:52;4.40;85.70
27940;DHT22;15275;51.716;14.324;2023-03-09T03:25:19;4.40;85.60
27940;DHT22;15275;51.716;14.324;2023-03-09T03:27:45;4.40;85.70
27940;DHT22;15275;51.716;14.324;2023-03-09T03:30:12;4.40;85.60
27940;DHT22;15275;51.716;14.324;2023-03-09T03:32:39;4.40;85.50
27940;DHT22;15275;51.716;14.324;2023-03-09T03:35:05;4.40;85.60
27940;DHT22;15275;51.716;14.324;2023-03-09T03:37:31;4.40;85.60
27940;DHT22;15275;51.716;14.324;2023-03-09T03:39:57;4.30;85.70
27940;DHT22;15275;51.716;14.324;2023-03-09T03:42:24;4.30;85.70
27940;DHT22;15275;51.716;14.324;2023-03-09T03:44:50;4.30;85.70
27940;DHT22;15275;51.716;14.324;2023-03-09T03:47:16;4.30;85.70
27940;DHT22;15275;51.716;14.324;2023-03-09T03:49:42;4.30;85.80
27940;DHT22;15275;51.716;14.324;2023-03-09T03:52:08;4.30;85.80
27940;DHT22;15275;51.716;14.324;2023-03-09T03:54:34;4.30;85.80
27940;DHT22;15275;51.716;14.324;2023-03-09T03:57:00;4.30;85.70
27940;DHT22;15275;51.716;14.324;2023-03-09T03:59:27;4.30;85.70
27940;DHT22;15275;51.716;14.324;2023-03-09T04:01:52;4.20;85.80
27940;DHT22;15275;51.716;14.324;2023-03-09T04:04:18;4.20;85.80
27940;DHT22;15275;51.716;14.324;2023-03-09T04:06:44;4.20;85.80
27940;DHT22;15275;51.716;14.324;2023-03-09T04:09:10;4.20;85.90
27940;DHT22;15275;51.716;14.324;2023-03-09T04:11:36;4.20;86.00
27940;DHT22;15275;51.716;14.324;2023-03-09T04:14:02;4.20;86.10
27940;DHT22;15275;51.716;14.324;2023-03-09T04:16:27;4.20;86.00
27940;DHT22;15275;51.716;14.324;2023-03-09T04:18:53;4.20;86.00
27940;DHT22;15275;51.716;14.324;2023-03-09T04:21:19;4.20;86.10
27940;DHT22;15275;51.716;14.324;2023-03-09T04:23:47;4.30;86.10
27940;DHT22;15275;51.716;14.324;2023-03-09T04:26:14;4.20;86.20
27940;DHT22;15275;51.716;14.324;2023-03-09T04:28:40;4.30;86.10
27940;DHT22;15275;51.716;14.324;2023-03-09T04:31:05;4.30;86.10
27940;DHT22;15275;51.716;14.324;2023-03-09T04:33:31;4.30;86.00
27940;DHT22;15275;51.716;14.324;2023-03-09T04:35:57;4.30;86.00
27940;DHT22;15275;51.716;14.324;2023-03-09T04:38:23;4.30;85.80
27940;DHT22;15275;51.716;14.324;2023-03-09T04:40:48;4.20;85.80
27940;DHT22;15275;51.716;14.324;2023-03-09T04:43:14;4.20;85.90
27940;DHT22;15275;51.716;14.324;2023-03-09T04:45:40;4.20;85.90
27940;DHT22;15275;51.716;14.324;2023-03-09T04:48:06;4.20;86.00
27940;DHT22;15275;51.716;14.324;2023-03-09T04:50:32;4.20;86.00
27940;DHT22;15275;51.716;14.324;2023-03-09T04:52:57;4.20;86.10
27940;DHT22;15275;51.716;14.324;2023-03-09T04:55:23;4.20;86.00
27940;DHT22;15275;51.716;14.324;2023-03-09T04:57:49;4.20;86.00
27940;DHT22;15275;51.716;14.324;2023-03-09T05:00:16;4.20;86.00
27940;DHT22;15275;51.716;14.324;2023-03-09T05:02:43;4.20;86.10
27940;DHT22;15275;51.716;14.324;2023-03-09T05:05:09;4.20;86.10
27940;DHT22;15275;51.716;14.324;2023-03-09T05:07:36;4.20;86.00
27940;DHT22;15275;51.716;14.324;2023-03-09T05:10:02;4.20;86.00
27940;DHT22;15275;51.716;14.324;2023-03-09T05:12:28;4.20;86.00
27940;DHT22;15275;51.716;14.324;2023-03-09T05:15:00;4.20;86.10
27940;DHT22;15275;51.716;14.324;2023-03-09T05:17:27;4.20;86.10
27940;DHT22;15275;51.716;14.324;2023-03-09T05:19:53;4.20;86.10
27940;DHT22;15275;51.716;14.324;2023-03-09T05:22:19;4.20;86.20
27940;DHT22;15275;51.716;14.324;2023-03-09T05:24:45;4.20;86.20
27940;DHT22;15275;51.716;14.324;2023-03-09T05:27:11;4.20;86.10
27940;DHT22;15275;51.716;14.324;2023-03-09T05:29:41;4.20;86.00
27940;DHT22;15275;51.716;14.324;2023-03-09T05:32:07;4.20;86.00
27940;DHT22;15275;51.716;14.324;2023-03-09T05:34:33;4.20;86.00
27940;DHT22;15275;51.716;14.324;2023-03-09T05:36:59;4.20;86.00
27940;DHT22;15275;51.716;14.324;2023-03-09T05:39:26;4.20;86.10
27940;DHT22;15275;51.716;14.324;2023-03-09T05:41:53;4.20;86.10
27940;DHT22;15275;51.716;14.324;2023-03-09T05:44:19;4.20;86.10
27940;DHT22;15275;51.716;14.324;2023-03-09T05:46:45;4.20;86.10
27940;DHT22;15275;51.716;14.324;2023-03-09T05:49:11;4.20;86.00
27940;DHT22;15275;51.716;14.324;2023-03-09T05:51:37;4.20;86.00
27940;DHT22;15275;51.716;14.324;2023-03-09T05:54:03;4.20;86.10
27940;DHT22;15275;51.716;14.324;2023-03-09T05:56:28;4.30;86.20
27940;DHT22;15275;51.716;14.324;2023-03-09T05:58:54;4.30;86.20
27940;DHT22;15275;51.716;14.324;2023-03-09T06:01:25;4.30;86.20
27940;DHT22;15275;51.716;14.324;2023-03-09T06:03:52;4.30;86.20
27940;DHT22;15275;51.716;14.324;2023-03-09T06:06:19;4.30;86.00
27940;DHT22;15275;51.716;14.324;2023-03-09T06:08:45;4.30;86.00
27940;DHT22;15275;51.716;14.324;2023-03-09T06:11:11;4.30;86.00
27940;DHT22;15275;51.716;14.324;2023-03-09T06:13:38;4.30;86.10
27940;DHT22;15275;51.716;14.324;2023-03-09T06:16:10;4.30;86.00
27940;DHT22;15275;51.716;14.324;2023-03-09T06:18:38;4.30;86.10
27940;DHT22;15275;51.716;14.324;2023-03-09T06:21:05;4.30;85.70
27940;DHT22;15275;51.716;14.324;2023-03-09T06:23:32;4.30;86.00
27940;DHT22;15275;51.716;14.324;2023-03-09T06:26:05;4.30;86.10
27940;DHT22;15275;51.716;14.324;2023-03-09T06:28:33;4.30;86.10
27940;DHT22;15275;51.716;14.324;2023-03-09T06:31:04;4.30;86.10
27940;DHT22;15275;51.716;14.324;2023-03-09T06:33:33;4.20;86.10
27940;DHT22;15275;51.716;14.324;2023-03-09T06:36:00;4.20;86.20
27940;DHT22;15275;51.716;14.324;2023-03-09T06:38:27;4.30;86.20
27940;DHT22;15275;51.716;14.324;2023-03-09T06:40:53;4.30;86.20
27940;DHT22;15275;51.716;14.324;2023-03-09T06:43:20;4.30;86.30
27940;DHT22;15275;51.716;14.324;2023-03-09T06:45:46;4.30;86.30
27940;DHT22;15275;51.716;14.324;2023-03-09T06:48:12;4.30;86.30
27940;DHT22;15275;51.716;14.324;2023-03-09T06:50:38;4.30;86.40
27940;DHT22;15275;51.716;14.324;2023-03-09T06:53:04;4.30;86.30
27940;DHT22;15275;51.716;14.324;2023-03-09T06:55:30;4.30;86.20
27940;DHT22;15275;51.716;14.324;2023-03-09T06:57:56;4.30;86.20
27940;DHT22;15275;51.716;14.324;2023-03-09T07:00:22;4.30;86.10
27940;DHT22;15275;51.716;14.324;2023-03-09T07:02:48;4.30;86.10
27940;DHT22;15275;51.716;14.324;2023-03-09T07:05:14;4.30;86.00
27940;DHT22;15275;51.716;14.324;2023-03-09T07:07:40;4.30;86.00
27940;DHT22;15275;51.716;14.324;2023-03-09T07:10:12;4.30;86.00
27940;DHT22;15275;51.716;14.324;2023-03-09T07:12:38;4.30;86.20
27940;DHT22;15275;51.716;14.324;2023-03-09T07:15:05;4.30;86.20
27940;DHT22;15275;51.716;14.324;2023-03-09T07:17:31;4.30;86.10
27940;DHT22;15275;51.716;14.324;2023-03-09T07:19:57;4.30;86.00
27940;DHT22;15275;51.716;14.324;2023-03-09T07:22:23;4.30;86.10
27940;DHT22;15275;51.716;14.324;2023-03-09T07:24:50;4.30;86.20
27940;DHT22;15275;51.716;14.324;2023-03-09T07:27:16;4.30;86.30
27940;DHT22;15275;51.716;14.324;2023-03-09T07:29:45;4.30;86.30
27940;DHT22;15275;51.716;14.324;2023-03-09T07:32:11;4.30;86.20
27940;DHT22;15275;51.716;14.324;2023-03-09T07:34:38;4.30;86.20
27940;DHT22;15275;51.716;14.324;2023-03-09T07:37:04;4.30;86.20
27940;DHT22;15275;51.716;14.324;2023-03-09T07:39:30;4.30;86.20
27940;DHT22;15275;51.716;14.324;2023-03-09T07:41:56;4.40;86.30
27940;DHT22;15275;51.716;14.324;2023-03-09T07:44:22;4.40;86.30
27940;DHT22;15275;51.716;14.324;2023-03-09T07:46:48;4.40;86.30
27940;DHT22;15275;51.716;14.324;2023-03-09T07:49:14;4.40;86.20
27940;DHT22;15275;51.716;14.324;2023-03-09T07:51:40;4.40;86.20
27940;DHT22;15275;51.716;14.324;2023-03-09T07:54:06;4.50;86.30
27940;DHT22;15275;51.716;14.324;2023-03-09T07:56:33;4.50;86.50
27940;DHT22;15275;51.716;14.324;2023-03-09T07:58:59;4.50;86.50
27940;DHT22;15275;51.716;14.324;2023-03-09T08:01:25;4.60;86.50
27940;DHT22;15275;51.716;14.324;2023-03-09T08:03:52;4.60;86.60
27940;DHT22;15275;51.716;14.324;2023-03-09T08:06:18;4.70;86.80
27940;DHT22;15275;51.716;14.324;2023-03-09T08:08:45;4.80;87.00
27940;DHT22;15275;51.716;14.324;2023-03-09T08:11:12;4.80;87.00
27940;DHT22;15275;51.716;14.324;2023-03-09T08:13:39;4.90;87.00
27940;DHT22;15275;51.716;14.324;2023-03-09T08:16:07;5.00;87.20
27940;DHT22;15275;51.716;14.324;2023-03-09T08:18:34;5.10;87.00
27940;DHT22;15275;51.716;14.324;2023-03-09T08:21:09;5.20;86.70
27940;DHT22;15275;51.716;14.324;2023-03-09T08:23:38;5.30;86.50
27940;DHT22;15275;51.716;14.324;2023-03-09T08:26:12;5.30;86.40
27940;DHT22;15275;51.716;14.324;2023-03-09T08:28:40;5.40;86.50
27940;DHT22;15275;51.716;14.324;2023-03-09T08:31:12;5.40;86.40
27940;DHT22;15275;51.716;14.324;2023-03-09T08:33:40;5.50;86.20
27940;DHT22;15275;51.716;14.324;2023-03-09T08:36:11;5.50;86.10
27940;DHT22;15275;51.716;14.324;2023-03-09T08:38:37;5.60;85.90
27940;DHT22;15275;51.716;14.324;2023-03-09T08:41:03;5.50;85.70
27940;DHT22;15275;51.716;14.324;2023-03-09T08:43:29;5.60;85.70
27940;DHT22;15275;51.716;14.324;2023-03-09T08:45:54;5.60;85.70
27940;DHT22;15275;51.716;14.324;2023-03-09T08:48:20;5.60;85.60
27940;DHT22;15275;51.716;14.324;2023-03-09T08:50:46;5.60;85.80
27940;DHT22;15275;51.716;14.324;2023-03-09T08:53:12;5.60;85.70
27940;DHT22;15275;51.716;14.324;2023-03-09T08:55:38;5.60;85.70
27940;DHT22;15275;51.716;14.324;2023-03-09T08:58:03;5.60;85.90
27940;DHT22;15275;51.716;14.324;2023-03-09T09:00:29;5.60;85.90
27940;DHT22;15275;51.716;14.324;2023-03-09T09:02:55;5.70;85.70
27940;DHT22;15275;51.716;14.324;2023-03-09T09:05:21;5.70;85.70
27940;DHT22;15275;51.716;14.324;2023-03-09T09:07:46;5.70;85.90
27940;DHT22;15275;51.716;14.324;2023-03-09T09:10:12;5.80;85.80
27940;DHT22;15275;51.716;14.324;2023-03-09T09:12:38;5.80;85.60
27940;DHT22;15275;51.716;14.324;2023-03-09T09:15:08;5.90;85.50
27940;DHT22;15275;51.716;14.324;2023-03-09T09:17:36;5.90;85.60
27940;DHT22;15275;51.716;14.324;2023-03-09T09:20:03;5.90;85.70
27940;DHT22;15275;51.716;14.324;2023-03-09T09:22:30;5.90;85.70
27940;DHT22;15275;51.716;14.324;2023-03-09T09:24:56;6.00;85.50
27940;DHT22;15275;51.716;14.324;2023-03-09T09:27:22;6.00;85.40
27940;DHT22;15275;51.716;14.324;2023-03-09T09:29:47;6.00;85.40
27940;DHT22;15275;51.716;14.324;2023-03-09T09:32:13;6.10;85.60
27940;DHT22;15275;51.716;14.324;2023-03-09T09:34:39;6.10;85.90
27940;DHT22;15275;51.716;14.324;2023-03-09T09:37:05;6.20;86.10
27940;DHT22;15275;51.716;14.324;2023-03-09T09:39:32;6.20;86.10
27940;DHT22;15275;51.716;14.324;2023-03-09T09:42:01;6.30;86.20
27940;DHT22;15275;51.716;14.324;2023-03-09T09:44:40;6.30;86.10
27940;DHT22;15275;51.716;14.324;2023-03-09T09:47:17;6.40;85.80
27940;DHT22;15275;51.716;14.324;2023-03-09T09:49:48;6.40;85.80
27940;DHT22;15275;51.716;14.324;2023-03-09T10:00:54;6.70;85.00
27940;DHT22;15275;51.716;14.324;2023-03-09T10:03:23;6.70;85.20
27940;DHT22;15275;51.716;14.324;2023-03-09T10:06:04;6.70;85.40
27940;DHT22;15275;51.716;14.324;2023-03-09T10:11:24;6.90;85.20
27940;DHT22;15275;51.716;14.324;2023-03-09T10:16:44;7.00;84.80
27940;DHT22;15275;51.716;14.324;2023-03-09T10:19:27;7.00;84.70
27940;DHT22;15275;51.716;14.324;2023-03-09T10:24:44;7.10;84.00
27940;DHT22;15275;51.716;14.324;2023-03-09T10:27:19;7.10;84.10
27940;DHT22;15275;51.716;14.324;2023-03-09T10:38:17;7.20;84.10
27940;DHT22;15275;51.716;14.324;2023-03-09T10:43:34;7.20;84.50
27940;DHT22;15275;51.716;14.324;2023-03-09T10:48:44;7.30;84.20
27940;DHT22;15275;51.716;14.324;2023-03-09T10:51:41;7.30;84.10
27940;DHT22;15275;51.716;14.324;2023-03-09T10:54:23;7.30;83.20
27940;DHT22;15275;51.716;14.324;2023-03-09T10:56:58;7.40;84.10
27940;DHT22;15275;51.716;14.324;2023-03-09T10:59:27;7.40;84.10
27940;DHT22;15275;51.716;14.324;2023-03-09T11:01:57;7.40;84.30
27940;DHT22;15275;51.716;14.324;2023-03-09T11:07:25;7.50;84.10
27940;DHT22;15275;51.716;14.324;2023-03-09T11:09:52;7.50;83.30
27940;DHT22;15275;51.716;14.324;2023-03-09T11:12:37;7.50;84.10
27940;DHT22;15275;51.716;14.324;2023-03-09T11:15:27;7.60;83.40
27940;DHT22;15275;51.716;14.324;2023-03-09T11:17:58;7.60;83.20
27940;DHT22;15275;51.716;14.324;2023-03-09T11:25:45;7.70;83.60
27940;DHT22;15275;51.716;14.324;2023-03-09T11:31:25;7.70;83.30
27940;DHT22;15275;51.716;14.324;2023-03-09T11:34:02;7.80;83.50
27940;DHT22;15275;51.716;14.324;2023-03-09T11:36:42;7.80;83.30
27940;DHT22;15275;51.716;14.324;2023-03-09T11:39:26;7.80;83.20
27940;DHT22;15275;51.716;14.324;2023-03-09T11:41:57;7.80;83.80
27940;DHT22;15275;51.716;14.324;2023-03-09T11:44:36;7.80;83.80
27940;DHT22;15275;51.716;14.324;2023-03-09T11:50:11;7.90;83.50
27940;DHT22;15275;51.716;14.324;2023-03-09T11:52:46;7.90;83.80
27940;DHT22;15275;51.716;14.324;2023-03-09T11:55:18;8.00;83.60
27940;DHT22;15275;51.716;14.324;2023-03-09T11:57:49;8.00;83.40
27940;DHT22;15275;51.716;14.324;2023-03-09T12:00:20;8.00;83.10
27940;DHT22;15275;51.716;14.324;2023-03-09T12:03:14;8.00;82.70
27940;DHT22;15275;51.716;14.324;2023-03-09T12:05:45;8.00;82.10
27940;DHT22;15275;51.716;14.324;2023-03-09T12:10:50;8.00;82.70
27940;DHT22;15275;51.716;14.324;2023-03-09T12:16:14;8.00;82.90
27940;DHT22;15275;51.716;14.324;2023-03-09T12:21:33;8.00;82.80
27940;DHT22;15275;51.716;14.324;2023-03-09T12:24:43;8.10;83.00
27940;DHT22;15275;51.716;14.324;2023-03-09T12:27:29;8.10;82.00
27940;DHT22;15275;51.716;14.324;2023-03-09T12:34:56;8.10;83.10
27940;DHT22;15275;51.716;14.324;2023-03-09T12:40:18;8.10;82.60
27940;DHT22;15275;51.716;14.324;2023-03-09T12:42:52;8.10;82.20
27940;DHT22;15275;51.716;14.324;2023-03-09T12:45:37;8.10;82.60
27940;DHT22;15275;51.716;14.324;2023-03-09T13:05:55;8.10;83.80
27940;DHT22;15275;51.716;14.324;2023-03-09T13:08:35;8.20;83.60
27940;DHT22;15275;51.716;14.324;2023-03-09T13:13:54;8.20;82.20
27940;DHT22;15275;51.716;14.324;2023-03-09T13:29:42;8.30;82.80
27940;DHT22;15275;51.716;14.324;2023-03-09T13:34:52;8.30;82.00
27940;DHT22;15275;51.716;14.324;2023-03-09T13:37:22;8.30;82.60
27940;DHT22;15275;51.716;14.324;2023-03-09T13:40:22;8.30;82.80
27940;DHT22;15275;51.716;14.324;2023-03-09T13:43:04;8.30;82.30
27940;DHT22;15275;51.716;14.324;2023-03-09T13:45:36;8.30;82.80
27940;DHT22;15275;51.716;14.324;2023-03-09T13:48:05;8.30;82.80
27940;DHT22;15275;51.716;14.324;2023-03-09T13:50:36;8.30;83.00
27940;DHT22;15275;51.716;14.324;2023-03-09T13:53:23;8.30;83.00
27940;DHT22;15275;51.716;14.324;2023-03-09T13:56:04;8.30;82.90
27940;DHT22;15275;51.716;14.324;2023-03-09T13:58:42;8.30;83.30
27940;DHT22;15275;51.716;14.324;2023-03-09T14:01:24;8.40;82.90
27940;DHT22;15275;51.716;14.324;2023-03-09T14:03:53;8.40;82.60
27940;DHT22;15275;51.716;14.324;2023-03-09T14:06:35;8.40;82.80
27940;DHT22;15275;51.716;14.324;2023-03-09T14:09:33;8.40;82.60
27940;DHT22;15275;51.716;14.324;2023-03-09T14:12:00;8.40;82.60
27940;DHT22;15275;51.716;14.324;2023-03-09T14:14:27;8.40;82.90
27940;DHT22;15275;51.716;14.324;2023-03-09T14:16:53;8.30;83.10
27940;DHT22;15275;51.716;14.324;2023-03-09T14:19:26;8.40;83.10
27940;DHT22;15275;51.716;14.324;2023-03-09T14:21:54;8.40;83.20
27940;DHT22;15275;51.716;14.324;2023-03-09T14:26:49;8.40;83.30
27940;DHT22;15275;51.716;14.324;2023-03-09T14:29:30;8.40;83.30
27940;DHT22;15275;51.716;14.324;2023-03-09T14:35:23;8.50;82.30
27940;DHT22;15275;51.716;14.324;2023-03-09T14:37:54;8.40;82.10
27940;DHT22;15275;51.716;14.324;2023-03-09T14:40:27;8.40;82.70
27940;DHT22;15275;51.716;14.324;2023-03-09T14:43:18;8.40;82.70
27940;DHT22;15275;51.716;14.324;2023-03-09T14:45:50;8.40;81.40
27940;DHT22;15275;51.716;14.324;2023-03-09T14:48:16;8.40;83.00
27940;DHT22;15275;51.716;14.324;2023-03-09T14:50:43;8.40;83.10
27940;DHT22;15275;51.716;14.324;2023-03-09T14:53:16;8.40;83.20
27940;DHT22;15275;51.716;14.324;2023-03-09T14:55:42;8.40;83.60
27940;DHT22;15275;51.716;14.324;2023-03-09T14:58:12;8.50;83.70
27940;DHT22;15275;51.716;14.324;2023-03-09T15:00:39;8.50;83.60
27940;DHT22;15275;51.716;14.324;2023-03-09T15:03:06;8.50;83.60
27940;DHT22;15275;51.716;14.324;2023-03-09T15:05:32;8.60;83.30
27940;DHT22;15275;51.716;14.324;2023-03-09T15:07:58;8.60;83.10
27940;DHT22;15275;51.716;14.324;2023-03-09T15:10:25;8.60;83.00
27940;DHT22;15275;51.716;14.324;2023-03-09T15:12:52;8.60;82.90
27940;DHT22;15275;51.716;14.324;2023-03-09T15:15:21;8.60;82.60
27940;DHT22;15275;51.716;14.324;2023-03-09T15:17:49;8.60;82.60
27940;DHT22;15275;51.716;14.324;2023-03-09T15:20:20;8.50;81.10
27940;DHT22;15275;51.716;14.324;2023-03-09T15:22:48;8.50;82.40
27940;DHT22;15275;51.716;14.324;2023-03-09T15:25:16;8.50;82.30
27940;DHT22;15275;51.716;14.324;2023-03-09T15:27:44;8.50;82.40
27940;DHT22;15275;51.716;14.324;2023-03-09T15:30:20;8.50;82.50
27940;DHT22;15275;51.716;14.324;2023-03-09T15:32:46;8.50;82.30
27940;DHT22;15275;51.716;14.324;2023-03-09T15:35:15;8.50;82.50
27940;DHT22;15275;51.716;14.324;2023-03-09T15:37:42;8.50;82.60
27940;DHT22;15275;51.716;14.324;2023-03-09T15:40:10;8.50;82.60
27940;DHT22;15275;51.716;14.324;2023-03-09T15:42:37;8.50;82.60
27940;DHT22;15275;51.716;14.324;2023-03-09T15:45:05;8.50;82.50
27940;DHT22;15275;51.716;14.324;2023-03-09T15:47:33;8.40;82.50
27940;DHT22;15275;51.716;14.324;2023-03-09T15:49:59;8.40;82.40
27940;DHT22;15275;51.716;14.324;2023-03-09T15:52:25;8.40;82.40
27940;DHT22;15275;51.716;14.324;2023-03-09T15:54:51;8.40;82.50
27940;DHT22;15275;51.716;14.324;2023-03-09T15:57:17;8.40;82.50
27940;DHT22;15275;51.716;14.324;2023-03-09T15:59:43;8.40;82.40
27940;DHT22;15275;51.716;14.324;2023-03-09T16:02:10;8.40;82.30
27940;DHT22;15275;51.716;14.324;2023-03-09T16:04:36;8.30;82.30
27940;DHT22;15275;51.716;14.324;2023-03-09T16:07:02;8.30;82.30
27940;DHT22;15275;51.716;14.324;2023-03-09T16:09:28;8.30;82.40
27940;DHT22;15275;51.716;14.324;2023-03-09T16:11:54;8.30;82.40
27940;DHT22;15275;51.716;14.324;2023-03-09T16:14:20;8.30;82.30
27940;DHT22;15275;51.716;14.324;2023-03-09T16:16:46;8.30;82.30
27940;DHT22;15275;51.716;14.324;2023-03-09T16:19:12;8.20;82.40
27940;DHT22;15275;51.716;14.324;2023-03-09T16:21:38;8.20;82.40
27940;DHT22;15275;51.716;14.324;2023-03-09T16:24:04;8.20;82.30
27940;DHT22;15275;51.716;14.324;2023-03-09T16:26:30;8.20;82.30
27940;DHT22;15275;51.716;14.324;2023-03-09T16:28:56;8.10;82.40
27940;DHT22;15275;51.716;14.324;2023-03-09T16:31:24;8.10;82.60
27940;DHT22;15275;51.716;14.324;2023-03-09T16:33:51;8.10;82.70
27940;DHT22;15275;51.716;14.324;2023-03-09T16:36:18;8.10;82.60
27940;DHT22;15275;51.716;14.324;2023-03-09T16:38:44;8.10;82.70
27940;DHT22;15275;51.716;14.324;2023-03-09T16:41:15;8.00;82.60
27940;DHT22;15275;51.716;14.324;2023-03-09T16:43:41;8.00;82.40
27940;DHT22;15275;51.716;14.324;2023-03-09T16:46:13;8.00;82.20
27940;DHT22;15275;51.716;14.324;2023-03-09T16:48:41;8.00;82.10
27940;DHT22;15275;51.716;14.324;2023-03-09T16:51:07;7.90;82.20
27940;DHT22;15275;51.716;14.324;2023-03-09T16:53:33;7.90;82.20
27940;DHT22;15275;51.716;14.324;2023-03-09T16:56:01;7.80;82.20
27940;DHT22;15275;51.716;14.324;2023-03-09T16:58:29;7.80;82.30
27940;DHT22;15275;51.716;14.324;2023-03-09T17:00:56;7.80;82.40
27940;DHT22;15275;51.716;14.324;2023-03-09T17:03:22;7.70;82.50
27940;DHT22;15275;51.716;14.324;2023-03-09T17:05:48;7.70;82.50
27940;DHT22;15275;51.716;14.324;2023-03-09T17:08:16;7.70;82.60
27940;DHT22;15275;51.716;14.324;2023-03-09T17:10:44;7.70;82.70
27940;DHT22;15275;51.716;14.324;2023-03-09T17:13:10;7.60;82.80
27940;DHT22;15275;51.716;14.324;2023-03-09T17:15:37;7.60;82.70
27940;DHT22;15275;51.716;14.324;2023-03-09T17:18:03;7.60;82.70
27940;DHT22;15275;51.716;14.324;2023-03-09T17:20:28;7.60;82.60
27940;DHT22;15275;51.716;14.324;2023-03-09T17:22:55;7.50;82.60
27940;DHT22;15275;51.716;14.324;2023-03-09T17:25:23;7.50;82.70
27940;DHT22;15275;51.716;14.324;2023-03-09T17:27:50;7.50;82.90
27940;DHT22;15275;51.716;14.324;2023-03-09T17:30:19;7.40;82.90
27940;DHT22;15275;51.716;14.324;2023-03-09T17:32:47;7.40;83.00
27940;DHT22;15275;51.716;14.324;2023-03-09T17:35:13;7.40;83.10
27940;DHT22;15275;51.716;14.324;2023-03-09T17:37:39;7.40;83.20
27940;DHT22;15275;51.716;14.324;2023-03-09T17:40:08;7.30;83.20